Time;durP1;ratioP1;P1;durP2;ratioP2;P2;SDS_P1;SDS_P2;PMS_P1;PMS_P2;Temp;Humidity;BMP_temperature;BMP_pressure;BME280_temperature;BME280_humidity;BME280_pressure;Samples;Min_cycle;Max_cycle;Signal;HPM_P1;HPM_P2
2023/04/18 00:00:11;;;;;;;10.73;7.20;;;;;;;;;;4943614;28;21333;-80
2023/04/18 00:02:38;;;;;;;10.52;7.22;;;;;;;;;;4958838;28;20035;-80
2023/04/18 00:05:06;;;;;;;12.85;7.90;;;;;;;;;;4954878;28;20042;-80
2023/04/18 00:07:31;;;;;;;12.93;8.07;;;;;;;;;;4961164;28;20120;-80
2023/04/18 00:09:57;;;;;;;15.43;8.02;;;;;;;;;;4962944;28;20066;-81
2023/04/18 00:12:22;;;;;;;15.18;8.48;;;;;;;;;;4958126;28;20034;-80
2023/04/18 00:14:49;;;;;;;14.02;7.80;;;;;;;;;;4957723;28;20043;-81
2023/04/18 00:17:15;;;;;;;11.07;6.90;;;;;;;;;;4948317;28;20027;-81
2023/04/18 00:19:41;;;;;;;13.48;7.65;;;;;;;;;;4975607;28;20031;-81
2023/04/18 00:22:07;;;;;;;14.10;8.02;;;;;;;;;;4985169;28;20376;-80
2023/04/18 00:24:32;;;;;;;10.88;7.13;;;;;;;;;;4974800;28;20061;-80
2023/04/18 00:26:58;;;;;;;12.25;7.43;;;;;;;;;;4976654;28;20043;-80
2023/04/18 00:29:23;;;;;;;12.18;7.72;;;;;;;;;;4972864;28;20563;-80
2023/04/18 00:31:49;;;;;;;12.13;7.38;;;;;;;;;;4976269;28;20091;-79
2023/04/18 00:34:14;;;;;;;13.50;7.88;;;;;;;;;;4980381;28;20026;-79
2023/04/18 00:36:39;;;;;;;13.55;7.55;;;;;;;;;;4974169;28;20364;-80
2023/04/18 00:39:05;;;;;;;12.50;7.32;;;;;;;;;;4955894;28;20109;-81
2023/04/18 00:41:30;;;;;;;12.40;7.80;;;;;;;;;;4980615;28;21985;-80
2023/04/18 00:43:56;;;;;;;14.55;7.65;;;;;;;;;;4974878;28;20058;-81
2023/04/18 00:46:21;;;;;;;17.70;7.88;;;;;;;;;;4973928;28;20557;-79
2023/04/18 00:48:47;;;;;;;14.57;8.00;;;;;;;;;;4969212;28;20030;-81
2023/04/18 00:51:12;;;;;;;12.65;8.25;;;;;;;;;;4976959;28;20101;-79
2023/04/18 00:53:43;;;;;;;13.50;8.25;;;;;;;;;;4979221;28;20113;-81
2023/04/18 00:56:08;;;;;;;13.35;8.38;;;;;;;;;;4985912;28;20023;-81
2023/04/18 00:58:34;;;;;;;12.27;7.38;;;;;;;;;;4990770;28;20113;-80
2023/04/18 01:00:59;;;;;;;13.80;8.07;;;;;;;;;;4959183;28;20057;-81
2023/04/18 01:03:25;;;;;;;11.52;7.60;;;;;;;;;;4983357;28;20033;-81
2023/04/18 01:05:52;;;;;;;15.55;8.25;;;;;;;;;;4985209;28;20034;-80
2023/04/18 01:08:20;;;;;;;15.13;7.55;;;;;;;;;;4990775;28;20057;-81
2023/04/18 01:10:46;;;;;;;14.13;8.77;;;;;;;;;;4987702;28;20046;-80
2023/04/18 01:13:13;;;;;;;14.60;8.32;;;;;;;;;;4984851;28;20015;-80
2023/04/18 01:15:40;;;;;;;13.00;8.65;;;;;;;;;;4984728;28;20518;-81
2023/04/18 01:18:07;;;;;;;17.40;8.98;;;;;;;;;;4981088;28;20149;-81
2023/04/18 01:20:34;;;;;;;15.57;8.52;;;;;;;;;;4984054;28;20026;-81
2023/04/18 01:23:00;;;;;;;13.68;8.43;;;;;;;;;;4985485;28;20033;-80
2023/04/18 01:25:25;;;;;;;13.05;8.07;;;;;;;;;;4983772;28;20046;-80
2023/04/18 01:27:53;;;;;;;17.77;7.70;;;;;;;;;;4993175;28;20069;-81
2023/04/18 01:30:18;;;;;;;12.73;8.02;;;;;;;;;;4995404;28;20034;-81
2023/04/18 01:32:43;;;;;;;16.02;7.55;;;;;;;;;;4981724;28;20022;-80
2023/04/18 01:35:09;;;;;;;15.90;8.38;;;;;;;;;;4980735;28;20027;-80
2023/04/18 01:37:34;;;;;;;14.07;8.20;;;;;;;;;;4983642;28;20034;-80
2023/04/18 01:40:00;;;;;;;13.60;7.88;;;;;;;;;;4993688;28;20031;-80
2023/04/18 01:42:25;;;;;;;14.23;7.60;;;;;;;;;;4984794;28;20399;-80
2023/04/18 01:44:51;;;;;;;13.32;8.10;;;;;;;;;;4964061;28;20062;-82
2023/04/18 01:47:16;;;;;;;10.88;7.30;;;;;;;;;;4996263;28;20026;-81
2023/04/18 01:49:45;;;;;;;14.10;8.43;;;;;;;;;;4972364;28;20026;-80
2023/04/18 01:52:13;;;;;;;12.75;7.75;;;;;;;;;;4978008;28;20038;-80
2023/04/18 01:54:38;;;;;;;15.05;7.85;;;;;;;;;;4973170;28;20386;-79
2023/04/18 01:57:03;;;;;;;17.05;8.10;;;;;;;;;;4990294;28;20549;-81
2023/04/18 01:59:29;;;;;;;16.45;7.57;;;;;;;;;;4976417;28;20037;-81
2023/04/18 02:01:54;;;;;;;15.45;8.10;;;;;;;;;;4993857;28;20041;-81
2023/04/18 02:04:19;;;;;;;15.57;8.48;;;;;;;;;;4982437;28;20038;-80
2023/04/18 02:06:45;;;;;;;13.23;7.40;;;;;;;;;;4982279;28;20097;-81
2023/04/18 02:09:10;;;;;;;11.57;7.07;;;;;;;;;;4986538;28;20083;-82
2023/04/18 02:11:36;;;;;;;14.90;7.70;;;;;;;;;;4983854;28;20106;-81
2023/04/18 02:14:01;;;;;;;12.70;7.10;;;;;;;;;;4980335;28;20471;-81
2023/04/18 02:16:26;;;;;;;11.48;6.80;;;;;;;;;;4988155;28;20080;-82
2023/04/18 02:18:52;;;;;;;12.25;7.38;;;;;;;;;;4991227;28;20026;-82
2023/04/18 02:21:17;;;;;;;14.95;7.55;;;;;;;;;;4981600;28;20046;-81
2023/04/18 02:23:42;;;;;;;13.35;7.50;;;;;;;;;;4984505;28;20846;-80
2023/04/18 02:26:08;;;;;;;11.82;7.32;;;;;;;;;;4987480;28;20033;-81
2023/04/18 02:28:33;;;;;;;13.90;7.18;;;;;;;;;;4998445;28;20030;-79
2023/04/18 02:30:59;;;;;;;9.45;6.43;;;;;;;;;;4991653;28;20038;-79
2023/04/18 02:33:24;;;;;;;15.10;7.28;;;;;;;;;;5001123;28;20037;-79
2023/04/18 02:35:50;;;;;;;13.18;7.85;;;;;;;;;;4990371;28;20049;-81
2023/04/18 02:38:15;;;;;;;13.82;7.50;;;;;;;;;;4990261;28;20037;-79
2023/04/18 02:40:40;;;;;;;11.63;7.40;;;;;;;;;;4990300;28;20030;-81
2023/04/18 02:43:06;;;;;;;15.82;8.23;;;;;;;;;;4983863;28;20026;-83
2023/04/18 02:45:31;;;;;;;11.20;6.90;;;;;;;;;;4984542;28;20394;-82
2023/04/18 02:47:57;;;;;;;15.13;7.22;;;;;;;;;;4990711;28;20034;-82
2023/04/18 02:50:23;;;;;;;13.35;7.20;;;;;;;;;;4988943;28;20022;-81
2023/04/18 02:52:48;;;;;;;15.00;7.35;;;;;;;;;;4989695;28;20033;-82
2023/04/18 02:55:14;;;;;;;10.93;6.55;;;;;;;;;;4989749;28;20034;-82
2023/04/18 02:57:39;;;;;;;12.85;7.32;;;;;;;;;;4974840;28;20030;-82
2023/04/18 03:00:06;;;;;;;11.80;6.55;;;;;;;;;;4988703;28;20049;-80
2023/04/18 03:02:32;;;;;;;11.23;6.45;;;;;;;;;;4991417;28;20027;-82
2023/04/18 03:04:57;;;;;;;16.52;7.55;;;;;;;;;;4982812;28;20027;-82
2023/04/18 03:07:22;;;;;;;12.48;7.78;;;;;;;;;;4989957;28;20453;-82
2023/04/18 03:09:48;;;;;;;10.77;6.72;;;;;;;;;;4994286;28;20045;-82
2023/04/18 03:12:13;;;;;;;10.82;7.78;;;;;;;;;;4987298;28;20026;-82
2023/04/18 03:14:38;;;;;;;16.45;7.45;;;;;;;;;;4987057;28;20438;-82
2023/04/18 03:17:04;;;;;;;12.15;7.30;;;;;;;;;;4994556;28;20042;-81
2023/04/18 03:19:30;;;;;;;13.20;7.18;;;;;;;;;;4991257;28;20032;-81
2023/04/18 03:21:56;;;;;;;16.38;9.27;;;;;;;;;;4994968;28;20033;-82
2023/04/18 03:24:21;;;;;;;13.75;7.25;;;;;;;;;;4964069;28;20058;-82
2023/04/18 03:26:47;;;;;;;17.05;7.43;;;;;;;;;;4989161;28;20033;-80
2023/04/18 03:29:12;;;;;;;13.00;7.75;;;;;;;;;;4971505;28;20568;-81
2023/04/18 03:31:38;;;;;;;12.32;7.18;;;;;;;;;;4992944;28;20040;-81
2023/04/18 03:34:03;;;;;;;12.45;6.82;;;;;;;;;;4980400;28;20418;-81
2023/04/18 03:36:30;;;;;;;13.68;7.97;;;;;;;;;;4985650;28;20022;-80
2023/04/18 03:38:55;;;;;;;13.23;7.32;;;;;;;;;;4964197;28;20023;-81
2023/04/18 03:41:21;;;;;;;10.95;6.78;;;;;;;;;;4982822;28;20542;-82
2023/04/18 03:43:46;;;;;;;15.77;7.88;;;;;;;;;;4982071;28;20178;-80
2023/04/18 03:46:11;;;;;;;17.30;7.90;;;;;;;;;;4986835;28;20033;-80
2023/04/18 03:48:37;;;;;;;14.32;7.82;;;;;;;;;;4966831;28;20061;-82
2023/04/18 03:51:02;;;;;;;13.68;7.60;;;;;;;;;;4982196;28;20047;-81
2023/04/18 03:53:27;;;;;;;12.10;7.05;;;;;;;;;;4967307;28;20027;-80
2023/04/18 03:55:53;;;;;;;13.65;7.72;;;;;;;;;;4983101;28;20094;-81
2023/04/18 03:58:22;;;;;;;16.50;7.57;;;;;;;;;;4984775;28;20075;-82
2023/04/18 04:00:51;;;;;;;12.75;7.28;;;;;;;;;;4985431;28;20078;-81
2023/04/18 04:03:16;;;;;;;13.73;8.38;;;;;;;;;;4955903;28;20021;-80
2023/04/18 04:05:41;;;;;;;13.27;8.38;;;;;;;;;;4980106;28;20023;-82
2023/04/18 04:08:07;;;;;;;19.30;8.63;;;;;;;;;;4984063;28;20501;-81
2023/04/18 04:10:32;;;;;;;16.65;9.02;;;;;;;;;;4984995;28;20052;-81
2023/04/18 04:12:57;;;;;;;14.65;8.00;;;;;;;;;;4977253;28;20031;-82
2023/04/18 04:15:23;;;;;;;20.15;8.13;;;;;;;;;;4981333;28;20100;-81
2023/04/18 04:17:49;;;;;;;11.45;7.32;;;;;;;;;;4956089;28;20041;-82
2023/04/18 04:20:15;;;;;;;13.95;8.57;;;;;;;;;;4976594;28;20061;-81
2023/04/18 04:22:41;;;;;;;14.20;7.57;;;;;;;;;;4978792;28;20101;-80
2023/04/18 04:25:07;;;;;;;14.48;8.00;;;;;;;;;;4982233;28;20073;-82
2023/04/18 04:27:35;;;;;;;15.40;8.10;;;;;;;;;;4980410;28;20057;-81
2023/04/18 04:30:01;;;;;;;16.42;8.60;;;;;;;;;;4983149;28;20038;-81
2023/04/18 04:32:27;;;;;;;16.25;8.65;;;;;;;;;;4957717;28;20541;-82
2023/04/18 04:34:52;;;;;;;17.25;8.68;;;;;;;;;;4978715;28;20034;-82
2023/04/18 04:37:17;;;;;;;13.77;6.88;;;;;;;;;;4983724;28;20106;-81
2023/04/18 04:39:43;;;;;;;20.08;8.32;;;;;;;;;;4973935;28;20034;-80
2023/04/18 04:42:11;;;;;;;16.08;8.52;;;;;;;;;;4984147;28;20387;-81
2023/04/18 04:44:36;;;;;;;15.43;8.88;;;;;;;;;;4984594;28;20553;-81
2023/04/18 04:47:02;;;;;;;15.15;8.18;;;;;;;;;;4966667;28;20062;-79
2023/04/18 04:49:27;;;;;;;12.65;8.02;;;;;;;;;;4995788;28;20062;-79
2023/04/18 04:51:52;;;;;;;13.40;7.82;;;;;;;;;;4977295;28;20034;-80
2023/04/18 04:54:18;;;;;;;17.13;8.82;;;;;;;;;;4976018;28;20045;-81
2023/04/18 04:56:43;;;;;;;15.55;8.57;;;;;;;;;;4980075;28;20539;-81
2023/04/18 04:59:09;;;;;;;13.65;7.88;;;;;;;;;;4969805;28;20469;-82
2023/04/18 05:01:34;;;;;;;14.55;8.05;;;;;;;;;;4964497;28;20038;-82
2023/04/18 05:03:59;;;;;;;14.77;8.55;;;;;;;;;;4982569;28;20496;-82
2023/04/18 05:06:25;;;;;;;17.27;9.45;;;;;;;;;;4976839;28;20081;-82
2023/04/18 05:08:50;;;;;;;14.85;8.70;;;;;;;;;;4975072;28;20344;-82
2023/04/18 05:11:16;;;;;;;13.30;7.78;;;;;;;;;;4972161;28;20383;-82
2023/04/18 05:13:42;;;;;;;17.05;9.13;;;;;;;;;;4973927;28;20027;-82
2023/04/18 05:16:07;;;;;;;15.30;8.43;;;;;;;;;;4976595;28;20031;-82
2023/04/18 05:18:33;;;;;;;13.02;7.85;;;;;;;;;;4983273;28;20022;-81
2023/04/18 05:20:58;;;;;;;14.57;8.07;;;;;;;;;;4978051;28;20041;-82
2023/04/18 05:23:24;;;;;;;13.77;7.88;;;;;;;;;;4973190;28;20038;-81
2023/04/18 05:25:49;;;;;;;12.40;7.95;;;;;;;;;;4979449;28;20411;-83
2023/04/18 05:28:15;;;;;;;15.57;9.07;;;;;;;;;;4980504;28;20034;-81
2023/04/18 05:30:40;;;;;;;20.42;9.10;;;;;;;;;;4973244;28;20063;-83
2023/04/18 05:33:06;;;;;;;12.65;8.20;;;;;;;;;;4968197;28;20027;-81
2023/04/18 05:35:31;;;;;;;19.35;8.73;;;;;;;;;;4955454;28;20035;-81
2023/04/18 05:37:57;;;;;;;15.00;7.85;;;;;;;;;;4985843;28;20033;-80
2023/04/18 05:40:23;;;;;;;15.38;8.10;;;;;;;;;;4974978;28;20030;-81
2023/04/18 05:42:48;;;;;;;14.95;8.43;;;;;;;;;;4957562;28;20487;-81
2023/04/18 05:45:13;;;;;;;13.18;7.80;;;;;;;;;;4968391;28;20044;-81
2023/04/18 05:47:39;;;;;;;16.05;9.50;;;;;;;;;;4966863;28;20075;-80
2023/04/18 05:50:05;;;;;;;14.93;8.05;;;;;;;;;;4977136;28;20042;-80
2023/04/18 05:52:31;;;;;;;15.23;8.52;;;;;;;;;;4962308;28;20026;-80
2023/04/18 05:54:56;;;;;;;14.57;7.38;;;;;;;;;;4960653;28;20030;-80
2023/04/18 05:57:21;;;;;;;18.67;8.75;;;;;;;;;;4976452;28;20402;-81
2023/04/18 05:59:47;;;;;;;13.00;7.78;;;;;;;;;;4978273;28;20030;-81
2023/04/18 06:02:12;;;;;;;16.33;8.07;;;;;;;;;;4977058;28;20085;-80
2023/04/18 06:04:40;;;;;;;13.82;7.80;;;;;;;;;;4977321;28;20167;-81
2023/04/18 06:07:06;;;;;;;14.48;7.80;;;;;;;;;;4967902;28;20038;-80
2023/04/18 06:09:31;;;;;;;13.23;8.05;;;;;;;;;;4971644;28;20031;-80
2023/04/18 06:11:57;;;;;;;14.05;8.63;;;;;;;;;;4982265;28;20023;-80
2023/04/18 06:14:22;;;;;;;16.15;8.48;;;;;;;;;;4986301;28;20088;-81
2023/04/18 06:16:47;;;;;;;15.95;8.43;;;;;;;;;;4976999;28;20187;-83
2023/04/18 06:19:13;;;;;;;13.32;7.07;;;;;;;;;;4980124;28;20082;-80
2023/04/18 06:21:40;;;;;;;15.00;7.78;;;;;;;;;;4979436;28;20031;-82
2023/04/18 06:24:06;;;;;;;11.43;7.55;;;;;;;;;;4983645;28;20035;-82
2023/04/18 06:26:31;;;;;;;17.90;8.15;;;;;;;;;;4987481;28;20141;-82
2023/04/18 06:28:57;;;;;;;15.30;8.50;;;;;;;;;;4971317;28;20055;-83
2023/04/18 06:31:22;;;;;;;13.95;8.38;;;;;;;;;;4978313;28;20089;-81
2023/04/18 06:33:47;;;;;;;13.48;7.63;;;;;;;;;;4978879;28;20043;-80
2023/04/18 06:36:13;;;;;;;14.32;8.40;;;;;;;;;;4982131;28;20037;-81
2023/04/18 06:38:38;;;;;;;13.30;7.43;;;;;;;;;;4994132;28;20029;-80
2023/04/18 06:41:03;;;;;;;14.02;8.00;;;;;;;;;;4963654;28;20065;-81
2023/04/18 06:43:29;;;;;;;15.95;8.15;;;;;;;;;;4981308;28;20023;-82
2023/04/18 06:45:55;;;;;;;17.80;8.93;;;;;;;;;;4979852;28;20563;-80
2023/04/18 06:48:20;;;;;;;12.40;7.57;;;;;;;;;;4977145;28;20038;-78
2023/04/18 06:51:30;;;;;;;15.93;6.95;;;;;;;;;;4977219;28;20027;-79
2023/04/18 06:53:55;;;;;;;11.95;7.63;;;;;;;;;;4960431;29;20091;-81
2023/04/18 06:56:21;;;;;;;15.35;7.63;;;;;;;;;;4964602;28;20074;-80
2023/04/18 07:01:14;;;;;;;15.00;7.53;;;;;;;;;;4996165;28;20042;-79
2023/04/18 07:03:40;;;;;;;12.20;8.30;;;;;;;;;;4988947;28;20023;-80
2023/04/18 07:06:07;;;;;;;17.67;9.07;;;;;;;;;;5002727;28;20026;-80
2023/04/18 07:08:33;;;;;;;15.52;8.48;;;;;;;;;;4997806;28;20022;-80
2023/04/18 07:10:58;;;;;;;10.88;7.20;;;;;;;;;;5007616;28;20034;-78
2023/04/18 07:13:24;;;;;;;14.68;8.13;;;;;;;;;;4987259;28;20018;-77
2023/04/18 07:15:49;;;;;;;18.55;8.40;;;;;;;;;;5002727;28;20026;-78
2023/04/18 07:18:14;;;;;;;11.05;6.43;;;;;;;;;;4992384;28;20026;-78
2023/04/18 07:20:40;;;;;;;12.55;7.38;;;;;;;;;;4998169;28;20085;-79
2023/04/18 07:23:05;;;;;;;14.25;8.40;;;;;;;;;;4973309;28;20053;-78
2023/04/18 07:25:31;;;;;;;11.40;7.10;;;;;;;;;;5000286;28;20429;-78
2023/04/18 07:27:56;;;;;;;12.52;7.10;;;;;;;;;;5002494;28;20037;-78
2023/04/18 07:30:22;;;;;;;12.50;7.00;;;;;;;;;;5007965;28;20022;-80
2023/04/18 07:32:48;;;;;;;14.77;7.55;;;;;;;;;;5002951;28;20113;-79
2023/04/18 07:35:13;;;;;;;16.02;8.48;;;;;;;;;;5006250;28;20030;-80
2023/04/18 07:37:39;;;;;;;14.93;7.72;;;;;;;;;;5002790;28;20041;-80
2023/04/18 07:40:07;;;;;;;13.75;7.18;;;;;;;;;;4997539;28;20077;-80
2023/04/18 07:42:32;;;;;;;12.05;7.53;;;;;;;;;;5003170;28;20060;-79
2023/04/18 07:44:58;;;;;;;11.93;6.97;;;;;;;;;;4999147;28;20374;-80
2023/04/18 07:47:24;;;;;;;13.10;8.05;;;;;;;;;;5002915;28;20061;-80
2023/04/18 07:49:49;;;;;;;18.88;9.02;;;;;;;;;;4997438;28;20037;-80
2023/04/18 07:52:14;;;;;;;12.43;7.30;;;;;;;;;;5006107;28;20045;-79
2023/04/18 07:54:40;;;;;;;17.48;9.10;;;;;;;;;;4999008;28;20030;-80
2023/04/18 07:57:05;;;;;;;11.07;6.80;;;;;;;;;;5006681;28;20370;-79
2023/04/18 07:59:31;;;;;;;13.93;7.65;;;;;;;;;;5012618;28;20025;-79
2023/04/18 08:01:56;;;;;;;12.30;8.07;;;;;;;;;;5005869;28;20023;-80
2023/04/18 08:04:21;;;;;;;12.23;8.05;;;;;;;;;;4989963;28;20125;-80
2023/04/18 08:06:47;;;;;;;13.40;7.72;;;;;;;;;;4996845;28;20104;-81
2023/04/18 08:09:12;;;;;;;12.20;7.07;;;;;;;;;;4993780;28;20025;-80
2023/04/18 08:11:37;;;;;;;13.05;7.55;;;;;;;;;;4992487;28;20076;-79
2023/04/18 08:14:03;;;;;;;14.07;8.00;;;;;;;;;;4985913;28;20081;-82
2023/04/18 08:16:28;;;;;;;11.48;6.57;;;;;;;;;;4997211;28;20040;-79
2023/04/18 08:18:54;;;;;;;13.20;7.22;;;;;;;;;;5003069;28;20050;-79
2023/04/18 08:21:19;;;;;;;13.48;8.23;;;;;;;;;;4979927;28;20026;-79
2023/04/18 08:23:45;;;;;;;12.38;7.57;;;;;;;;;;4986041;28;20031;-78
2023/04/18 08:26:13;;;;;;;13.52;8.20;;;;;;;;;;5004079;28;20026;-86
2023/04/18 08:47:57;;;;;;;;;;;;;;;;;;;;;
2023/04/18 08:51:31;;;;;;;13.07;7.15;;;;;;;;;;4862213;29;20043;-87
2023/04/18 08:54:56;;;;;;;17.73;7.72;;;;;;;;;;4774944;30;20097;-87
2023/04/18 09:01:55;;;;;;;;;;;;;;;;;;;;;
2023/04/18 09:05:25;;;;;;;;;;;;;;;;;;;;;
2023/04/18 09:08:58;;;;;;;11.75;7.47;;;;;;;;;;4859308;28;20435;-86
2023/04/18 09:15:44;;;;;;;14.00;8.00;;;;;;;;;;4875541;28;19962;-85
2023/04/18 09:32:58;;;;;;;12.88;7.00;;;;;;;;;;4981049;28;20093;-85
2023/04/18 09:40:04;;;;;;;;;;;;;;;;;;;;;
2023/04/18 09:46:24;;;;;;;;;;;;;;;;;;;;;
2023/04/18 09:53:18;;;;;;;;;;;;;;;;;;;;;
2023/04/18 10:13:26;;;;;;;10.48;6.10;;;;;;;;;;4986147;28;20031;-86
2023/04/18 10:20:29;;;;;;;9.25;5.88;;;;;;;;;;4964377;28;20038;-86
2023/04/18 10:30:25;;;;;;;8.10;5.38;;;;;;;;;;4855945;29;20101;-87
2023/04/18 10:36:26;;;;;;;10.77;5.53;;;;;;;;;;4852034;29;20037;-85
2023/04/18 10:42:50;;;;;;;;;;;;;;;;;;;;;
2023/04/18 10:51:40;;;;;;;10.23;5.35;;;;;;;;;;5025781;23;20085;-81
2023/04/18 10:54:09;;;;;;;9.40;4.80;;;;;;;;;;4976753;28;20031;-81
2023/04/18 10:56:35;;;;;;;10.55;5.40;;;;;;;;;;4983097;28;20030;-79
2023/04/18 10:59:02;;;;;;;8.55;5.60;;;;;;;;;;4996171;28;20028;-79
2023/04/18 11:01:29;;;;;;;7.78;5.18;;;;;;;;;;4998244;28;20018;-80
2023/04/18 11:03:55;;;;;;;7.22;5.38;;;;;;;;;;5001697;28;20026;-81
2023/04/18 11:06:22;;;;;;;10.63;5.88;;;;;;;;;;5010184;28;20054;-83
2023/04/18 11:08:48;;;;;;;8.35;5.63;;;;;;;;;;5007700;28;20030;-82
2023/04/18 11:11:14;;;;;;;6.72;5.20;;;;;;;;;;4981333;28;20117;-82
2023/04/18 11:13:58;;;;;;;7.25;4.63;;;;;;;;;;5000108;28;20062;-82
2023/04/18 11:16:31;;;;;;;8.23;5.10;;;;;;;;;;5006983;28;20104;-82
2023/04/18 11:18:57;;;;;;;8.68;5.38;;;;;;;;;;4982689;28;20322;-80
2023/04/18 11:21:27;;;;;;;9.55;5.38;;;;;;;;;;5002320;28;20080;-81
2023/04/18 11:23:54;;;;;;;8.18;4.50;;;;;;;;;;4981687;28;20022;-81
2023/04/18 11:26:23;;;;;;;9.38;5.70;;;;;;;;;;4989769;28;20021;-81
2023/04/18 11:28:56;;;;;;;9.73;5.00;;;;;;;;;;5003025;28;20037;-81
2023/04/18 11:31:23;;;;;;;11.52;5.55;;;;;;;;;;4998468;28;20115;-81
2023/04/18 11:33:49;;;;;;;8.73;4.93;;;;;;;;;;4999726;28;20172;-81
2023/04/18 11:36:14;;;;;;;8.20;5.47;;;;;;;;;;5001627;28;20049;-82
2023/04/18 11:38:40;;;;;;;7.88;5.13;;;;;;;;;;5002308;28;20430;-82
2023/04/18 11:41:12;;;;;;;8.57;4.90;;;;;;;;;;4995848;28;20118;-81
2023/04/18 11:43:42;;;;;;;9.18;5.25;;;;;;;;;;4990837;28;20022;-81
2023/04/18 11:46:07;;;;;;;8.60;4.72;;;;;;;;;;4990031;28;20037;-82
2023/04/18 11:48:36;;;;;;;10.25;5.60;;;;;;;;;;5002768;28;20018;-82
2023/04/18 11:51:02;;;;;;;9.57;5.53;;;;;;;;;;4999238;28;20038;-81
2023/04/18 11:53:34;;;;;;;8.25;5.45;;;;;;;;;;5001329;28;20083;-80
2023/04/18 11:56:02;;;;;;;8.50;5.13;;;;;;;;;;5001188;28;20044;-82
2023/04/18 11:58:35;;;;;;;11.20;5.90;;;;;;;;;;4995307;28;20026;-81
2023/04/18 12:01:20;;;;;;;7.05;5.05;;;;;;;;;;4999338;28;20034;-82
2023/04/18 12:04:07;;;;;;;9.70;5.78;;;;;;;;;;4997145;28;20089;-82
2023/04/18 12:06:45;;;;;;;11.02;5.40;;;;;;;;;;4993671;28;20030;-81
2023/04/18 12:09:16;;;;;;;9.30;6.05;;;;;;;;;;4999276;28;20053;-82
2023/04/18 12:11:55;;;;;;;10.25;5.82;;;;;;;;;;5008521;28;20076;-81
2023/04/18 12:15:15;;;;;;;11.65;5.93;;;;;;;;;;5002723;28;20104;-82
2023/04/18 12:17:58;;;;;;;8.18;5.32;;;;;;;;;;4993715;28;20132;-81
2023/04/18 12:20:52;;;;;;;9.35;5.70;;;;;;;;;;4969482;28;20042;-81
2023/04/18 12:23:35;;;;;;;9.27;5.70;;;;;;;;;;4989159;28;20031;-81
2023/04/18 12:26:27;;;;;;;8.95;5.13;;;;;;;;;;4999165;28;20034;-82
2023/04/18 12:28:53;;;;;;;10.63;6.22;;;;;;;;;;4968683;28;20042;-82
2023/04/18 12:31:18;;;;;;;8.23;5.78;;;;;;;;;;5014002;28;20018;-82
2023/04/18 12:33:44;;;;;;;10.85;5.93;;;;;;;;;;5026414;28;20093;-82
2023/04/18 12:36:09;;;;;;;7.90;5.32;;;;;;;;;;4998654;28;20034;-82
2023/04/18 12:41:10;;;;;;;7.93;4.45;;;;;;;;;;5121626;23;20077;-82
2023/04/18 12:43:44;;;;;;;7.45;3.90;;;;;;;;;;4997618;28;20019;-82
2023/04/18 13:56:00;;;;;;;4.20;2.47;;;;;;;;;;5036823;28;20099;-82
2023/04/18 13:58:25;;;;;;;3.83;3.00;;;;;;;;;;4993399;28;20030;-81
2023/04/18 14:31:39;;;;;;;4.90;3.38;;;;;;;;;;5069234;23;20104;-82
2023/04/18 14:34:07;;;;;;;3.55;2.40;;;;;;;;;;5007900;28;20471;-82
2023/04/18 14:36:33;;;;;;;4.15;2.70;;;;;;;;;;5005507;28;20092;-83
2023/04/18 14:38:59;;;;;;;3.03;2.33;;;;;;;;;;4992242;28;20041;-82
2023/04/18 14:41:25;;;;;;;4.78;2.72;;;;;;;;;;4988437;28;20023;-81
2023/04/18 14:43:50;;;;;;;3.63;2.70;;;;;;;;;;4993225;28;20030;-80
2023/04/18 14:46:15;;;;;;;4.70;2.97;;;;;;;;;;4985306;28;20038;-81
2023/04/18 14:48:43;;;;;;;3.65;2.33;;;;;;;;;;4991565;28;20026;-81
2023/04/18 14:51:08;;;;;;;3.67;2.63;;;;;;;;;;4990289;28;20056;-81
2023/04/18 14:53:34;;;;;;;3.65;2.38;;;;;;;;;;4999474;28;20393;-81
2023/04/18 14:56:00;;;;;;;3.13;2.33;;;;;;;;;;4974060;28;20023;-82
2023/04/18 14:58:25;;;;;;;6.95;2.92;;;;;;;;;;4991581;28;20036;-82
2023/04/18 15:00:50;;;;;;;3.97;2.80;;;;;;;;;;4985795;28;20034;-82
2023/04/18 15:03:16;;;;;;;3.63;2.50;;;;;;;;;;4975802;28;20375;-81
2023/04/18 15:05:47;;;;;;;4.45;3.20;;;;;;;;;;5000897;28;20110;-81
2023/04/18 15:08:13;;;;;;;3.58;2.30;;;;;;;;;;4999246;28;20032;-82
2023/04/18 15:10:39;;;;;;;4.38;2.75;;;;;;;;;;5008717;28;20162;-80
2023/04/18 15:13:05;;;;;;;4.13;3.03;;;;;;;;;;5001350;28;20043;-80
2023/04/18 15:15:34;;;;;;;7.45;3.33;;;;;;;;;;4989911;28;20026;-81
2023/04/18 15:17:59;;;;;;;4.45;2.75;;;;;;;;;;4990805;28;20084;-79
2023/04/18 15:20:25;;;;;;;4.95;3.22;;;;;;;;;;4989386;28;20022;-80
2023/04/18 15:22:50;;;;;;;4.38;3.42;;;;;;;;;;4991369;28;20041;-80
2023/04/18 15:25:16;;;;;;;5.22;2.80;;;;;;;;;;4996869;28;20030;-80
2023/04/18 15:27:42;;;;;;;8.75;3.60;;;;;;;;;;4986999;28;20434;-81
2023/04/18 15:30:10;;;;;;;5.35;3.55;;;;;;;;;;4989937;28;20030;-80
2023/04/18 15:32:39;;;;;;;6.93;2.95;;;;;;;;;;4993852;28;20517;-81
2023/04/18 15:35:05;;;;;;;4.05;3.15;;;;;;;;;;4994095;28;20038;-80
2023/04/18 15:37:30;;;;;;;5.80;3.40;;;;;;;;;;5002414;28;20026;-79
2023/04/18 15:39:56;;;;;;;4.32;3.45;;;;;;;;;;4994121;28;20495;-80
2023/04/18 15:42:24;;;;;;;5.18;3.90;;;;;;;;;;4973690;28;20124;-79
2023/04/18 15:44:49;;;;;;;6.32;3.80;;;;;;;;;;4970014;28;20030;-79
2023/04/18 15:47:16;;;;;;;5.35;3.63;;;;;;;;;;5008862;28;20411;-80
2023/04/18 15:49:44;;;;;;;5.72;3.55;;;;;;;;;;4994106;28;20552;-79
2023/04/18 15:52:14;;;;;;;5.97;4.00;;;;;;;;;;4983775;28;20033;-79
2023/04/18 15:54:41;;;;;;;6.13;3.58;;;;;;;;;;4968991;28;20034;-80
2023/04/18 15:57:07;;;;;;;6.47;3.92;;;;;;;;;;4972500;28;20035;-78
2023/04/18 15:59:32;;;;;;;4.78;3.60;;;;;;;;;;4979693;28;20041;-81
2023/04/18 16:01:57;;;;;;;4.53;3.50;;;;;;;;;;4983848;28;20403;-80
2023/04/18 16:04:23;;;;;;;5.32;3.10;;;;;;;;;;4984944;28;20030;-80
2023/04/18 16:06:48;;;;;;;4.82;3.45;;;;;;;;;;4982242;28;20078;-80
2023/04/18 16:09:15;;;;;;;5.05;3.40;;;;;;;;;;4987275;28;20157;-82
2023/04/18 16:11:56;;;;;;;5.43;3.60;;;;;;;;;;4986261;28;20031;-79
2023/04/18 16:14:21;;;;;;;5.40;3.70;;;;;;;;;;4985664;28;20050;-79
2023/04/18 16:16:46;;;;;;;4.35;3.08;;;;;;;;;;4973626;28;20049;-79
2023/04/18 16:19:13;;;;;;;5.85;3.25;;;;;;;;;;4985574;28;20019;-80
2023/04/18 16:21:38;;;;;;;4.13;3.20;;;;;;;;;;4986413;28;20073;-79
2023/04/18 16:24:04;;;;;;;5.47;3.58;;;;;;;;;;4994090;28;20034;-79
2023/04/18 16:26:29;;;;;;;5.05;3.22;;;;;;;;;;4996002;28;20046;-80
2023/04/18 16:28:55;;;;;;;5.35;3.88;;;;;;;;;;4997182;28;20029;-79
2023/04/18 16:31:21;;;;;;;4.40;3.22;;;;;;;;;;4970037;28;20179;-80
2023/04/18 16:33:46;;;;;;;6.05;3.72;;;;;;;;;;4991461;28;20506;-79
2023/04/18 16:36:12;;;;;;;7.68;3.70;;;;;;;;;;4988144;28;20041;-80
2023/04/18 16:38:37;;;;;;;3.90;2.88;;;;;;;;;;4990767;28;20026;-80
2023/04/18 16:41:02;;;;;;;5.57;3.30;;;;;;;;;;4991535;28;20064;-81
2023/04/18 16:43:29;;;;;;;5.53;3.42;;;;;;;;;;4974160;28;20051;-80
2023/04/18 16:45:56;;;;;;;9.65;3.22;;;;;;;;;;4983620;28;20077;-83
2023/04/18 16:48:22;;;;;;;3.85;3.08;;;;;;;;;;4989960;28;20057;-80
2023/04/18 16:50:48;;;;;;;5.13;3.65;;;;;;;;;;4992943;28;20030;-79
2023/04/18 16:53:13;;;;;;;5.03;3.45;;;;;;;;;;4977397;28;20022;-79
2023/04/18 16:55:39;;;;;;;7.28;3.50;;;;;;;;;;5015635;28;20017;-81
2023/04/18 16:58:04;;;;;;;4.85;3.40;;;;;;;;;;4994805;28;20118;-81
2023/04/18 17:00:30;;;;;;;4.70;3.17;;;;;;;;;;4994595;28;20105;-80
2023/04/18 17:02:55;;;;;;;3.35;2.90;;;;;;;;;;4992905;28;20110;-80
2023/04/18 17:05:22;;;;;;;5.18;3.53;;;;;;;;;;4981949;28;20487;-80
2023/04/18 17:07:50;;;;;;;3.45;2.92;;;;;;;;;;4999970;28;20034;-80
2023/04/18 17:10:17;;;;;;;4.60;2.92;;;;;;;;;;4987388;28;20025;-79
2023/04/18 17:12:44;;;;;;;6.03;3.15;;;;;;;;;;4995008;28;20023;-80
2023/04/18 17:15:10;;;;;;;5.32;3.85;;;;;;;;;;5012610;28;20532;-79
2023/04/18 17:17:35;;;;;;;5.13;3.70;;;;;;;;;;4987878;28;20037;-80
2023/04/18 17:20:00;;;;;;;6.22;3.58;;;;;;;;;;4997364;28;20038;-79
2023/04/18 17:22:26;;;;;;;5.45;3.08;;;;;;;;;;5005033;28;20041;-80
2023/04/18 17:24:51;;;;;;;4.50;3.63;;;;;;;;;;5022441;28;20030;-78
2023/04/18 17:27:16;;;;;;;5.03;3.22;;;;;;;;;;5025796;28;20030;-79
2023/04/18 17:29:42;;;;;;;7.15;3.85;;;;;;;;;;5013513;28;20022;-78
2023/04/18 17:32:07;;;;;;;4.88;3.13;;;;;;;;;;5006335;28;20030;-80
2023/04/18 17:34:33;;;;;;;5.13;3.28;;;;;;;;;;4995797;28;20030;-80
2023/04/18 17:36:58;;;;;;;5.85;3.80;;;;;;;;;;5003019;28;20054;-82
2023/04/18 17:39:23;;;;;;;6.18;3.70;;;;;;;;;;4995200;28;20027;-81
2023/04/18 17:41:49;;;;;;;6.30;3.83;;;;;;;;;;5002890;28;20026;-81
2023/04/18 17:44:14;;;;;;;5.30;3.85;;;;;;;;;;4989349;28;20032;-81
2023/04/18 17:46:40;;;;;;;4.88;3.85;;;;;;;;;;5000393;28;20022;-81
2023/04/18 17:49:05;;;;;;;5.53;3.35;;;;;;;;;;5011905;28;20029;-79
2023/04/18 17:51:30;;;;;;;7.95;3.83;;;;;;;;;;5006461;28;20036;-79
2023/04/18 17:53:56;;;;;;;5.40;3.67;;;;;;;;;;5003473;28;20038;-79
2023/04/18 17:56:21;;;;;;;6.72;3.75;;;;;;;;;;5013229;28;20060;-79
2023/04/18 17:58:47;;;;;;;5.15;3.22;;;;;;;;;;5020938;28;20022;-78
2023/04/18 18:01:17;;;;;;;6.65;4.28;;;;;;;;;;4998748;28;20113;-79
2023/04/18 18:03:43;;;;;;;6.03;4.07;;;;;;;;;;4998928;28;20422;-79
2023/04/18 18:06:13;;;;;;;6.82;4.00;;;;;;;;;;5016984;28;20100;-79